Time;durP1;ratioP1;P1;durP2;ratioP2;P2;SDS_P1;SDS_P2;PMS_P1;PMS_P2;Temp;Humidity;BMP_temperature;BMP_pressure;BME280_temperature;BME280_humidity;BME280_pressure;Samples;Min_cycle;Max_cycle;Signal;HPM_P1;HPM_P2
2022/01/17 00:02:25;;;;;;;13.77;1.90;;;6.10;99.90;;;;;;5081231;28;20032;-75
2022/01/17 00:04:51;;;;;;;15.32;2.55;;;6.10;99.90;;;;;;5082281;28;20045;-75
2022/01/17 00:07:17;;;;;;;18.27;2.25;;;6.00;99.90;;;;;;5081987;28;20040;-75
2022/01/17 00:09:43;;;;;;;18.25;1.73;;;6.00;99.90;;;;;;5087682;28;20039;-75
2022/01/17 00:12:09;;;;;;;16.40;1.88;;;6.00;99.90;;;;;;5084571;28;20036;-75
2022/01/17 00:14:39;;;;;;;17.50;2.38;;;6.00;99.90;;;;;;5111847;27;20044;-75
2022/01/17 00:17:23;;;;;;;12.77;1.70;;;5.90;99.90;;;;;;5084020;28;20040;-75
2022/01/17 00:19:54;;;;;;;12.98;2.10;;;5.90;99.90;;;;;;5087957;28;20431;-75
2022/01/17 00:22:21;;;;;;;16.40;2.33;;;5.90;99.90;;;;;;5084241;28;20129;-75
2022/01/17 00:24:48;;;;;;;27.20;3.88;;;5.90;99.90;;;;;;5082082;28;20430;-74
2022/01/17 00:27:14;;;;;;;18.58;2.95;;;5.80;99.90;;;;;;5083322;28;20043;-74
2022/01/17 00:29:40;;;;;;;14.65;2.72;;;5.80;99.90;;;;;;5081793;28;20395;-75
2022/01/17 00:32:06;;;;;;;17.98;2.10;;;5.90;99.90;;;;;;5081398;28;20036;-75
2022/01/17 00:34:33;;;;;;;16.65;1.85;;;5.80;99.90;;;;;;5086055;28;20039;-74
2022/01/17 00:36:59;;;;;;;17.98;1.77;;;5.80;99.90;;;;;;5083080;28;20047;-75
2022/01/17 00:39:26;;;;;;;10.52;2.05;;;5.70;99.90;;;;;;5083157;28;20043;-75
2022/01/17 00:41:51;;;;;;;17.45;2.35;;;5.70;99.90;;;;;;5083566;28;20556;-75
2022/01/17 00:44:22;;;;;;;18.45;3.42;;;5.70;99.90;;;;;;5080128;28;20051;-75
2022/01/17 00:46:49;;;;;;;14.88;2.25;;;5.70;99.90;;;;;;5082268;28;20052;-75
2022/01/17 00:49:15;;;;;;;12.52;1.63;;;5.60;99.90;;;;;;5079473;28;20510;-75
2022/01/17 00:51:40;;;;;;;15.23;1.80;;;5.60;99.90;;;;;;5115650;27;20028;-75
2022/01/17 00:54:06;;;;;;;15.35;2.58;;;5.60;99.90;;;;;;5083809;28;20126;-75
2022/01/17 00:56:32;;;;;;;11.68;1.80;;;5.60;99.90;;;;;;5080345;28;20042;-75
2022/01/17 00:58:57;;;;;;;17.65;2.05;;;5.60;99.90;;;;;;5079129;28;20127;-75
2022/01/17 01:01:23;;;;;;;13.02;2.35;;;5.60;99.90;;;;;;5082314;28;20618;-75
2022/01/17 01:03:48;;;;;;;21.42;2.42;;;5.70;99.90;;;;;;5084245;28;20040;-74
2022/01/17 01:06:14;;;;;;;16.60;2.45;;;5.60;99.90;;;;;;5081619;28;20060;-75
2022/01/17 01:08:40;;;;;;;16.75;2.00;;;5.60;99.90;;;;;;5087969;28;20479;-75
2022/01/17 01:11:07;;;;;;;14.85;2.25;;;5.70;99.90;;;;;;5078783;28;20047;-75
2022/01/17 01:13:33;;;;;;;15.68;2.80;;;5.60;99.90;;;;;;5079384;28;20502;-75
2022/01/17 01:29:19;;;;;;;18.15;3.05;;;5.40;99.90;;;;;;5083875;28;20435;-74
2022/01/17 01:34:11;;;;;;;21.65;4.57;;;5.30;99.90;;;;;;5084586;28;20041;-74
2022/01/17 01:36:37;;;;;;;15.43;1.75;;;5.30;99.90;;;;;;5081142;28;20044;-75
2022/01/17 01:39:05;;;;;;;16.42;2.13;;;5.20;99.90;;;;;;5077369;28;20467;-75
2022/01/17 01:41:41;;;;;;;18.00;2.35;;;5.30;99.90;;;;;;5078705;28;20044;-75
2022/01/17 01:44:15;;;;;;;22.65;3.10;;;5.30;99.90;;;;;;5115372;27;20096;-75
2022/01/17 01:46:43;;;;;;;13.82;2.60;;;5.30;99.90;;;;;;5084552;28;20101;-75
2022/01/17 01:49:09;;;;;;;19.08;2.45;;;5.30;99.90;;;;;;5081361;28;20044;-75
2022/01/17 01:51:34;;;;;;;15.27;2.13;;;5.20;99.90;;;;;;5084343;28;20179;-74
2022/01/17 01:54:00;;;;;;;18.75;1.88;;;5.20;99.90;;;;;;5081375;28;20040;-75
2022/01/17 01:56:26;;;;;;;13.35;2.10;;;5.20;99.90;;;;;;5083261;28;20482;-75
2022/01/17 01:58:52;;;;;;;18.65;2.20;;;5.30;99.90;;;;;;5079891;28;20040;-74
2022/01/17 02:01:17;;;;;;;20.52;2.55;;;5.30;99.90;;;;;;5080346;28;20028;-75
2022/01/17 02:03:43;;;;;;;18.50;2.63;;;5.30;99.90;;;;;;5089100;28;20043;-75
2022/01/17 02:06:09;;;;;;;16.58;2.92;;;5.30;99.90;;;;;;5080250;28;20139;-75
2022/01/17 02:08:35;;;;;;;19.02;2.28;;;5.30;99.90;;;;;;5085121;28;20497;-75
2022/01/17 02:11:00;;;;;;;21.50;3.40;;;5.20;99.90;;;;;;5083279;28;20036;-75
2022/01/17 02:13:27;;;;;;;20.67;2.47;;;5.20;99.90;;;;;;5085744;28;20043;-74
2022/01/17 02:16:04;;;;;;;18.20;2.33;;;5.20;99.90;;;;;;5085701;28;20040;-74
2022/01/17 02:18:31;;;;;;;16.92;3.40;;;5.30;99.90;;;;;;5089543;28;20044;-74
2022/01/17 02:23:51;;;;;;;20.83;2.50;;;5.20;99.90;;;;;;5117121;27;20044;-75
2022/01/17 02:26:18;;;;;;;16.58;2.40;;;5.20;99.90;;;;;;5112286;27;20298;-74
2022/01/17 02:28:49;;;;;;;22.10;2.53;;;5.20;99.90;;;;;;5114993;27;20158;-74
2022/01/17 02:31:16;;;;;;;15.32;1.77;;;5.10;99.90;;;;;;5084397;28;20054;-75
2022/01/17 02:33:42;;;;;;;30.77;3.35;;;5.10;99.90;;;;;;5114253;27;20510;-74
2022/01/17 02:36:08;;;;;;;23.40;2.60;;;5.10;99.90;;;;;;5080307;28;20055;-75
2022/01/17 02:38:34;;;;;;;22.08;2.55;;;5.10;99.90;;;;;;5083292;28;20144;-75
2022/01/17 02:41:00;;;;;;;18.48;2.20;;;5.00;99.90;;;;;;5081723;28;20126;-74
2022/01/17 02:43:26;;;;;;;22.38;2.65;;;5.00;99.90;;;;;;5119272;27;20047;-75
2022/01/17 02:48:20;;;;;;;25.42;3.15;;;5.00;99.90;;;;;;5118159;27;20041;-74
2022/01/17 02:50:47;;;;;;;20.33;2.70;;;4.90;99.90;;;;;;5080902;28;20497;-74
2022/01/17 02:53:13;;;;;;;12.65;1.92;;;4.90;99.90;;;;;;5085834;28;20079;-74
2022/01/17 02:55:46;;;;;;;21.35;3.20;;;4.90;99.90;;;;;;5084068;28;20040;-74
2022/01/17 02:58:13;;;;;;;18.25;2.17;;;4.90;99.90;;;;;;5084990;28;20461;-74
2022/01/17 03:00:39;;;;;;;21.45;2.75;;;4.90;99.90;;;;;;5080315;28;21460;-74
2022/01/17 03:03:04;;;;;;;22.30;1.90;;;5.10;99.90;;;;;;5080776;28;20036;-74
2022/01/17 03:05:30;;;;;;;23.67;3.28;;;4.80;99.90;;;;;;5082173;28;20432;-74
2022/01/17 03:07:56;;;;;;;25.23;3.22;;;4.80;99.90;;;;;;5085198;28;20530;-74
2022/01/17 03:12:50;;;;;;;19.30;2.22;;;4.70;99.90;;;;;;5088052;28;20471;-75
2022/01/17 03:15:15;;;;;;;15.63;2.20;;;4.80;99.90;;;;;;5081234;28;20127;-75
2022/01/17 03:17:41;;;;;;;17.85;2.10;;;4.80;99.90;;;;;;5085184;28;20036;-74
2022/01/17 03:20:08;;;;;;;17.83;1.77;;;4.70;99.90;;;;;;5081805;28;20096;-75
2022/01/17 03:22:33;;;;;;;19.15;1.95;;;4.80;99.90;;;;;;5083011;28;20390;-74
2022/01/17 03:24:59;;;;;;;17.80;2.28;;;4.80;99.90;;;;;;5080703;28;20043;-75
2022/01/17 03:27:25;;;;;;;19.92;2.47;;;4.80;99.90;;;;;;5078519;28;20040;-74
2022/01/17 03:29:50;;;;;;;15.95;2.30;;;4.90;99.90;;;;;;5085766;28;20123;-74
2022/01/17 03:32:16;;;;;;;18.80;2.60;;;4.90;99.90;;;;;;5083647;28;20076;-74
2022/01/17 03:34:42;;;;;;;12.57;1.83;;;5.00;99.90;;;;;;5084102;28;20545;-74
2022/01/17 03:37:08;;;;;;;15.20;2.58;;;4.90;99.90;;;;;;5087745;28;20077;-74
2022/01/17 03:39:34;;;;;;;12.50;1.90;;;5.00;99.90;;;;;;5082425;28;20502;-74
2022/01/17 03:42:00;;;;;;;15.82;2.72;;;5.00;99.90;;;;;;5086063;28;20032;-74
2022/01/17 03:44:25;;;;;;;16.63;1.90;;;4.90;99.90;;;;;;5087715;28;20367;-75
2022/01/17 03:46:51;;;;;;;16.17;2.90;;;5.00;99.90;;;;;;5086960;28;20093;-74
2022/01/17 03:49:17;;;;;;;19.17;2.40;;;5.00;99.90;;;;;;5082477;28;20087;-75
2022/01/17 03:51:42;;;;;;;17.38;2.17;;;5.10;99.90;;;;;;5081586;28;20095;-74
2022/01/17 03:54:08;;;;;;;20.98;2.22;;;5.10;99.90;;;;;;5089489;28;20130;-74
2022/01/17 03:56:34;;;;;;;17.95;2.22;;;5.20;99.90;;;;;;5084245;28;20122;-74
2022/01/17 03:58:59;;;;;;;18.52;2.65;;;5.10;99.90;;;;;;5079094;28;20040;-75
2022/01/17 04:01:25;;;;;;;18.30;1.98;;;5.20;99.90;;;;;;5083217;28;20086;-75
2022/01/17 04:03:51;;;;;;;13.52;2.13;;;5.20;99.90;;;;;;5080174;28;20037;-75
2022/01/17 04:06:17;;;;;;;20.75;2.80;;;5.20;99.90;;;;;;5085028;28;20039;-74
2022/01/17 04:08:43;;;;;;;15.88;2.13;;;5.20;99.90;;;;;;5086148;28;20044;-75
2022/01/17 04:11:09;;;;;;;13.02;1.70;;;5.20;99.90;;;;;;5086690;28;20047;-74
2022/01/17 04:13:35;;;;;;;17.45;2.55;;;5.10;99.90;;;;;;5112502;27;20406;-74
2022/01/17 04:16:01;;;;;;;17.30;1.90;;;5.10;99.90;;;;;;5082751;28;20048;-74
2022/01/17 04:18:28;;;;;;;15.93;2.05;;;5.10;99.90;;;;;;5085007;28;20040;-75
2022/01/17 04:20:54;;;;;;;22.38;2.13;;;5.10;99.90;;;;;;5081762;28;20044;-74
2022/01/17 04:23:20;;;;;;;14.65;2.35;;;5.10;99.90;;;;;;5080531;28;20135;-74
2022/01/17 04:25:46;;;;;;;19.77;3.72;;;5.00;99.90;;;;;;5085656;28;20040;-74
2022/01/17 04:28:13;;;;;;;13.65;1.88;;;5.00;99.90;;;;;;5112375;27;20043;-74
2022/01/17 04:30:41;;;;;;;17.42;2.28;;;5.00;99.90;;;;;;5085562;28;20036;-74
2022/01/17 04:33:07;;;;;;;17.58;3.05;;;5.00;99.90;;;;;;5086964;28;20047;-74
2022/01/17 04:35:35;;;;;;;19.83;2.05;;;5.00;99.90;;;;;;5085116;28;20129;-74
2022/01/17 04:38:17;;;;;;;11.75;1.95;;;5.00;99.90;;;;;;5084617;28;20047;-75
2022/01/17 04:40:46;;;;;;;17.73;1.70;;;5.00;99.90;;;;;;5083662;28;20047;-74
2022/01/17 04:43:19;;;;;;;13.63;1.92;;;5.00;99.90;;;;;;5082857;28;20445;-74
2022/01/17 04:45:46;;;;;;;20.20;2.13;;;5.00;99.90;;;;;;5082516;28;20057;-74
2022/01/17 04:48:12;;;;;;;17.92;2.70;;;5.00;99.90;;;;;;5081225;28;20147;-74
2022/01/17 04:50:38;;;;;;;21.50;2.28;;;5.00;99.90;;;;;;5065458;28;20163;-74
2022/01/17 04:53:03;;;;;;;16.35;1.67;;;5.10;99.90;;;;;;5090509;28;20506;-75
2022/01/17 04:55:30;;;;;;;14.20;1.90;;;5.10;99.90;;;;;;5082326;28;20051;-74
2022/01/17 04:57:56;;;;;;;14.82;1.98;;;5.10;99.90;;;;;;5081686;28;20394;-74
2022/01/17 05:00:24;;;;;;;14.65;1.75;;;5.10;99.90;;;;;;5116772;27;20652;-74
2022/01/17 05:02:49;;;;;;;21.02;2.40;;;5.10;99.90;;;;;;5082889;28;20040;-74
2022/01/17 05:05:16;;;;;;;12.73;1.60;;;5.30;99.90;;;;;;5081215;28;20210;-74
2022/01/17 05:07:42;;;;;;;20.45;2.83;;;5.30;99.90;;;;;;5069832;28;20043;-74
2022/01/17 05:10:12;;;;;;;24.02;2.22;;;5.30;99.90;;;;;;5080477;28;20043;-74
2022/01/17 05:12:38;;;;;;;22.30;3.00;;;5.40;99.90;;;;;;5087378;28;20517;-74
2022/01/17 05:15:09;;;;;;;17.02;2.53;;;5.40;99.90;;;;;;5081282;28;20040;-74
2022/01/17 05:17:43;;;;;;;21.83;3.13;;;5.50;99.90;;;;;;5080060;28;20561;-73
2022/01/17 05:20:10;;;;;;;15.70;2.35;;;5.60;99.90;;;;;;5083140;28;20406;-74
2022/01/17 05:22:37;;;;;;;17.83;2.90;;;5.60;99.90;;;;;;5080748;28;20140;-74
2022/01/17 05:25:08;;;;;;;11.63;2.65;;;5.60;99.90;;;;;;5077268;28;20542;-74
2022/01/17 05:27:35;;;;;;;16.52;2.63;;;5.60;99.90;;;;;;5076257;28;20047;-74
2022/01/17 05:30:03;;;;;;;25.10;2.97;;;5.70;99.90;;;;;;5111714;27;20032;-74
2022/01/17 05:32:29;;;;;;;21.00;2.67;;;5.80;99.90;;;;;;5084732;28;20040;-74
2022/01/17 05:34:55;;;;;;;16.83;2.47;;;5.80;99.90;;;;;;5083617;28;20044;-74
2022/01/17 05:37:20;;;;;;;14.40;2.00;;;5.80;99.90;;;;;;5079800;28;20047;-74
2022/01/17 05:39:46;;;;;;;20.17;3.35;;;5.80;99.90;;;;;;5075768;28;20047;-74
2022/01/17 05:42:17;;;;;;;15.70;2.60;;;5.90;99.90;;;;;;5082898;28;20047;-74
2022/01/17 05:44:44;;;;;;;21.05;3.40;;;5.90;99.90;;;;;;5080060;28;20052;-74
2022/01/17 05:47:10;;;;;;;19.80;3.85;;;6.00;99.90;;;;;;5081228;28;20047;-74
2022/01/17 05:49:37;;;;;;;17.95;2.72;;;6.00;99.90;;;;;;5085540;28;20044;-74
2022/01/17 05:52:04;;;;;;;19.13;3.22;;;6.00;99.90;;;;;;5081592;28;20390;-74
2022/01/17 05:54:30;;;;;;;18.00;3.15;;;6.00;99.90;;;;;;5102850;28;20065;-74
2022/01/17 05:56:55;;;;;;;21.27;3.53;;;6.00;99.90;;;;;;5049294;28;20525;-74
2022/01/17 05:59:22;;;;;;;21.40;3.38;;;6.00;99.90;;;;;;5081303;28;20040;-74
2022/01/17 06:01:48;;;;;;;22.75;3.28;;;6.10;99.90;;;;;;5077528;28;20061;-74
2022/01/17 06:04:13;;;;;;;18.15;3.35;;;6.10;99.90;;;;;;5082327;28;20248;-74
2022/01/17 06:06:39;;;;;;;21.98;3.35;;;6.10;99.90;;;;;;5079754;28;20032;-74
2022/01/17 06:09:05;;;;;;;14.07;3.45;;;6.10;99.90;;;;;;5081847;28;20513;-74
2022/01/17 06:11:33;;;;;;;21.50;3.58;;;6.10;99.90;;;;;;5084697;28;20032;-74
2022/01/17 06:13:59;;;;;;;22.88;3.92;;;6.10;99.90;;;;;;5061889;28;20041;-74
2022/01/17 06:16:25;;;;;;;20.92;3.80;;;6.20;99.90;;;;;;5080943;28;20040;-74
2022/01/17 06:18:51;;;;;;;19.30;3.58;;;6.20;99.90;;;;;;5078439;28;20051;-74
2022/01/17 06:21:16;;;;;;;21.98;3.60;;;6.10;99.90;;;;;;5084002;28;20610;-74
2022/01/17 06:23:42;;;;;;;21.13;4.20;;;6.20;99.90;;;;;;5083248;28;20047;-74
2022/01/17 06:26:08;;;;;;;16.65;3.50;;;6.20;99.90;;;;;;5080244;28;20050;-74
2022/01/17 06:28:33;;;;;;;17.63;3.38;;;6.20;99.90;;;;;;5083772;28;20048;-74
2022/01/17 06:30:59;;;;;;;19.20;3.83;;;6.20;99.90;;;;;;5079487;28;20050;-74
2022/01/17 06:33:24;;;;;;;21.98;4.95;;;6.30;99.90;;;;;;5085430;28;20494;-74
2022/01/17 06:35:50;;;;;;;24.67;3.58;;;6.30;99.90;;;;;;5083847;28;20376;-74
2022/01/17 06:38:16;;;;;;;22.02;4.35;;;6.20;99.90;;;;;;5083190;28;20044;-74
2022/01/17 06:40:42;;;;;;;16.15;3.75;;;6.30;99.90;;;;;;5083877;28;20449;-74
2022/01/17 06:43:08;;;;;;;23.27;6.15;;;6.30;99.90;;;;;;5083446;28;20670;-74
2022/01/17 06:45:35;;;;;;;22.33;4.70;;;6.30;99.90;;;;;;5086236;28;20052;-74
2022/01/17 06:48:01;;;;;;;23.67;5.38;;;6.30;99.90;;;;;;5082487;28;20363;-74
2022/01/17 06:50:26;;;;;;;20.95;4.25;;;6.30;99.90;;;;;;5084287;28;20040;-74
2022/01/17 06:52:53;;;;;;;20.45;4.53;;;6.40;99.90;;;;;;5081580;28;20031;-74
2022/01/17 06:55:18;;;;;;;21.15;5.20;;;6.40;99.90;;;;;;5084962;28;20062;-74
2022/01/17 06:57:44;;;;;;;19.52;4.10;;;6.40;99.90;;;;;;5086411;28;20055;-75
2022/01/17 07:00:12;;;;;;;27.50;5.55;;;6.40;99.90;;;;;;5090811;28;20075;-74
2022/01/17 07:02:38;;;;;;;22.88;4.97;;;6.40;99.90;;;;;;5092464;28;20096;-74
2022/01/17 07:05:05;;;;;;;24.70;5.47;;;6.40;99.90;;;;;;5084074;28;20093;-74
2022/01/17 07:07:31;;;;;;;24.00;5.25;;;6.40;99.90;;;;;;5087633;28;20071;-74
2022/01/17 07:09:57;;;;;;;23.95;4.60;;;6.50;99.90;;;;;;5093007;28;20718;-74
2022/01/17 07:12:22;;;;;;;25.23;5.15;;;6.40;99.90;;;;;;5091811;28;20430;-74
2022/01/17 07:14:48;;;;;;;24.42;5.43;;;6.50;99.90;;;;;;5084832;28;20050;-75
2022/01/17 07:17:14;;;;;;;25.77;4.43;;;6.50;99.90;;;;;;5079964;28;20048;-75
2022/01/17 07:19:40;;;;;;;22.70;4.70;;;6.40;99.90;;;;;;5078419;28;20044;-74
2022/01/17 07:22:07;;;;;;;21.75;4.45;;;6.50;99.90;;;;;;5082763;28;20044;-74
2022/01/17 07:24:33;;;;;;;20.10;4.47;;;6.50;99.90;;;;;;5086031;28;20048;-74
2022/01/17 07:26:58;;;;;;;20.75;4.22;;;6.50;99.90;;;;;;5079743;28;20382;-74
2022/01/17 07:29:26;;;;;;;28.70;4.97;;;6.50;99.90;;;;;;5080632;28;20119;-74
2022/01/17 07:31:52;;;;;;;28.20;5.47;;;6.50;99.90;;;;;;5078920;28;20903;-74
2022/01/17 07:34:17;;;;;;;22.13;5.05;;;6.50;99.90;;;;;;5112682;27;20138;-75
2022/01/17 07:36:43;;;;;;;31.35;4.70;;;6.40;99.90;;;;;;5078474;28;20494;-75
2022/01/17 07:39:09;;;;;;;26.38;5.43;;;6.50;99.90;;;;;;5111572;27;20397;-75
2022/01/17 07:41:35;;;;;;;26.25;4.15;;;6.40;99.90;;;;;;5076853;28;20040;-74
2022/01/17 07:44:03;;;;;;;27.92;5.22;;;6.40;99.90;;;;;;5077305;28;20451;-75
2022/01/17 07:46:37;;;;;;;34.05;6.40;;;6.40;99.90;;;;;;5079339;28;20055;-75
2022/01/17 07:49:16;;;;;;;24.08;4.35;;;6.40;99.90;;;;;;5081877;28;20044;-74
2022/01/17 07:51:44;;;;;;;31.05;4.72;;;6.50;99.90;;;;;;5080724;28;20032;-74
2022/01/17 07:54:11;;;;;;;26.83;4.30;;;6.50;99.90;;;;;;5076408;28;20075;-74
2022/01/17 07:56:37;;;;;;;27.42;4.18;;;6.40;99.90;;;;;;5078053;28;20048;-75
2022/01/17 07:59:04;;;;;;;25.45;4.53;;;6.50;99.90;;;;;;5078810;28;20641;-74
2022/01/17 08:01:30;;;;;;;27.77;4.75;;;6.40;99.90;;;;;;5080447;28;20040;-75
2022/01/17 08:03:56;;;;;;;30.10;4.47;;;6.50;99.90;;;;;;5075149;28;21612;-74
2022/01/17 08:06:21;;;;;;;30.15;4.22;;;6.50;99.90;;;;;;5077750;28;20118;-75
2022/01/17 08:08:47;;;;;;;36.83;5.13;;;6.50;99.90;;;;;;5076146;28;20119;-74
2022/01/17 08:11:14;;;;;;;29.98;5.35;;;6.50;99.90;;;;;;5078814;28;20147;-74
2022/01/17 08:13:40;;;;;;;28.90;5.45;;;6.50;99.90;;;;;;5077756;28;20170;-75
2022/01/17 08:16:06;;;;;;;35.47;6.22;;;6.50;99.90;;;;;;5076627;28;20127;-74
2022/01/17 08:18:32;;;;;;;28.98;4.13;;;6.60;99.90;;;;;;5078216;28;20050;-75
2022/01/17 08:20:58;;;;;;;29.98;5.07;;;6.60;99.90;;;;;;5079845;28;20033;-74
2022/01/17 08:23:24;;;;;;;24.83;4.22;;;6.50;99.90;;;;;;5077014;28;20502;-75
2022/01/17 08:25:50;;;;;;;24.45;4.82;;;6.60;99.90;;;;;;5080084;28;20044;-74
2022/01/17 08:28:15;;;;;;;27.35;4.30;;;6.70;99.90;;;;;;5078000;28;20113;-75
2022/01/17 08:30:42;;;;;;;30.17;4.55;;;6.70;99.90;;;;;;5077025;28;20495;-74
2022/01/17 08:33:08;;;;;;;28.23;5.10;;;6.60;99.90;;;;;;5109546;27;20040;-75
2022/01/17 08:35:34;;;;;;;32.20;4.65;;;6.70;99.90;;;;;;5082882;28;20398;-74
2022/01/17 08:37:59;;;;;;;29.98;4.38;;;6.70;99.90;;;;;;5077550;28;20042;-75
2022/01/17 08:40:25;;;;;;;26.25;3.80;;;6.70;99.90;;;;;;5077134;28;20036;-74
2022/01/17 08:42:51;;;;;;;29.13;4.72;;;6.80;99.90;;;;;;5077615;28;20089;-74
2022/01/17 08:45:21;;;;;;;38.42;5.30;;;6.80;99.90;;;;;;5079351;28;20048;-75
2022/01/17 08:47:49;;;;;;;33.53;4.35;;;6.80;99.90;;;;;;5080494;28;20054;-74
2022/01/17 08:50:17;;;;;;;24.35;4.10;;;6.90;99.90;;;;;;5077639;28;20036;-74
2022/01/17 08:52:45;;;;;;;36.00;7.57;;;6.90;99.90;;;;;;5087347;28;20597;-75
2022/01/17 08:55:11;;;;;;;31.98;4.05;;;6.90;99.90;;;;;;5107198;27;20128;-75
2022/01/17 08:57:36;;;;;;;40.90;5.43;;;6.90;99.90;;;;;;5080455;28;20122;-75
2022/01/17 09:00:05;;;;;;;29.10;4.38;;;6.90;99.90;;;;;;5080546;28;20052;-75
2022/01/17 09:02:31;;;;;;;32.78;5.38;;;7.00;99.90;;;;;;5076027;28;20044;-74
2022/01/17 09:04:56;;;;;;;34.67;5.07;;;6.90;99.90;;;;;;5091715;27;20416;-74
2022/01/17 09:07:22;;;;;;;31.23;4.50;;;6.90;99.90;;;;;;5075425;28;20067;-75
2022/01/17 09:09:48;;;;;;;41.20;5.65;;;7.00;99.90;;;;;;5059702;28;20082;-74
2022/01/17 09:12:14;;;;;;;41.00;4.72;;;7.00;99.90;;;;;;5075492;28;20036;-74
2022/01/17 09:14:40;;;;;;;37.13;6.15;;;7.00;99.90;;;;;;5073831;28;21015;-74
2022/01/17 09:17:08;;;;;;;38.90;4.97;;;7.10;99.90;;;;;;5074174;28;20080;-74
2022/01/17 09:19:35;;;;;;;37.53;6.00;;;7.10;99.90;;;;;;5080964;28;20602;-75
2022/01/17 09:22:01;;;;;;;39.95;5.35;;;7.20;99.90;;;;;;5077218;28;20398;-74
2022/01/17 09:24:30;;;;;;;36.88;4.38;;;7.20;99.90;;;;;;5078928;28;20040;-75
2022/01/17 09:26:56;;;;;;;38.75;6.10;;;7.20;99.90;;;;;;5078262;28;20040;-74
2022/01/17 09:29:21;;;;;;;30.50;4.85;;;7.30;99.90;;;;;;5077205;28;20048;-75
2022/01/17 09:31:47;;;;;;;36.35;4.93;;;7.30;99.90;;;;;;5078184;28;20039;-75
2022/01/17 09:34:14;;;;;;;33.08;5.20;;;7.30;99.90;;;;;;5056819;28;20137;-75
2022/01/17 09:36:40;;;;;;;34.72;4.68;;;7.40;99.90;;;;;;5078950;28;20482;-74
2022/01/17 09:39:07;;;;;;;34.63;5.75;;;7.40;99.90;;;;;;5107353;27;20107;-75
2022/01/17 09:41:33;;;;;;;31.17;4.57;;;7.50;99.90;;;;;;5076539;28;20067;-75
2022/01/17 09:43:59;;;;;;;34.72;5.40;;;7.50;99.90;;;;;;5078325;28;20045;-75
2022/01/17 09:46:31;;;;;;;35.03;4.97;;;7.60;99.90;;;;;;5075838;28;20629;-75
2022/01/17 09:49:02;;;;;;;36.42;5.13;;;7.70;99.90;;;;;;5111552;27;20045;-75
2022/01/17 09:51:41;;;;;;;41.03;4.47;;;7.70;99.90;;;;;;5077423;28;20071;-75
2022/01/17 09:54:08;;;;;;;29.55;5.22;;;7.80;99.90;;;;;;5078857;28;20450;-75
2022/01/17 09:56:35;;;;;;;35.42;4.90;;;7.90;99.90;;;;;;5078211;28;20064;-74
2022/01/17 09:59:02;;;;;;;30.15;5.07;;;7.90;99.90;;;;;;5077073;28;20466;-75
2022/01/17 10:01:28;;;;;;;34.05;4.70;;;8.00;99.90;;;;;;5075538;28;20025;-74
2022/01/17 10:03:56;;;;;;;33.50;5.57;;;8.00;99.90;;;;;;5076601;28;20040;-75
2022/01/17 10:06:24;;;;;;;24.50;5.32;;;8.00;99.90;;;;;;5077737;28;20132;-75
2022/01/17 10:09:21;;;;;;;34.05;5.97;;;8.10;99.90;;;;;;5078266;28;20039;-74
2022/01/17 10:12:04;;;;;;;38.78;6.50;;;8.20;99.90;;;;;;5075252;28;20047;-75
2022/01/17 10:14:36;;;;;;;35.88;6.43;;;8.40;99.90;;;;;;5077409;28;21309;-75
2022/01/17 10:17:13;;;;;;;36.03;6.20;;;8.40;99.90;;;;;;5072941;28;20091;-75
2022/01/17 10:19:40;;;;;;;32.08;4.97;;;8.40;99.90;;;;;;5075649;28;20055;-75
2022/01/17 10:22:12;;;;;;;30.98;5.50;;;8.50;99.90;;;;;;5071578;28;20458;-75
2022/01/17 10:24:47;;;;;;;36.83;5.80;;;8.60;99.90;;;;;;5078364;28;20039;-75
2022/01/17 10:35:35;;;;;;;37.58;5.60;;;8.90;99.90;;;;;;5086727;28;20050;-75
2022/01/17 10:38:11;;;;;;;41.10;5.85;;;8.90;99.90;;;;;;5084708;28;20475;-75
2022/01/17 10:40:40;;;;;;;35.22;5.70;;;8.90;99.90;;;;;;5078238;28;20044;-75
2022/01/17 10:43:18;;;;;;;34.03;5.82;;;9.00;99.90;;;;;;5080772;28;20109;-75
2022/01/17 10:45:44;;;;;;;41.50;6.95;;;9.00;99.90;;;;;;5079228;28;20080;-75
2022/01/17 10:48:10;;;;;;;40.03;7.03;;;9.00;99.90;;;;;;5078296;28;20916;-75
2022/01/17 10:50:42;;;;;;;37.90;6.07;;;9.10;99.90;;;;;;5082645;28;20032;-75
2022/01/17 10:53:11;;;;;;;36.15;5.70;;;9.20;99.90;;;;;;5075939;28;20559;-76
2022/01/17 10:55:52;;;;;;;39.33;7.05;;;9.20;99.90;;;;;;5114359;27;20032;-75
2022/01/17 10:58:23;;;;;;;45.55;7.43;;;9.30;99.90;;;;;;5078413;28;20048;-76
2022/01/17 11:00:54;;;;;;;39.55;7.05;;;9.30;99.90;;;;;;5079721;28;20044;-75
2022/01/17 11:03:24;;;;;;;39.00;9.38;;;9.30;99.90;;;;;;5079527;28;20075;-75
2022/01/17 11:05:53;;;;;;;36.00;7.45;;;9.30;99.90;;;;;;5075872;28;20495;-75
2022/01/17 11:08:21;;;;;;;46.42;7.15;;;9.30;99.90;;;;;;5078197;28;20183;-75
2022/01/17 11:10:53;;;;;;;42.63;5.97;;;9.30;99.90;;;;;;5080011;28;20500;-75
2022/01/17 11:13:20;;;;;;;40.63;7.50;;;9.30;99.90;;;;;;5075268;28;20556;-75
2022/01/17 11:15:52;;;;;;;34.30;6.70;;;9.20;99.90;;;;;;5112915;27;20386;-75
2022/01/17 11:18:22;;;;;;;44.70;10.15;;;9.20;99.90;;;;;;5077818;28;20193;-75
2022/01/17 11:20:52;;;;;;;36.95;6.15;;;9.30;99.90;;;;;;5076803;28;20044;-75
2022/01/17 11:23:21;;;;;;;38.72;7.72;;;9.30;99.90;;;;;;5078164;28;20032;-75
2022/01/17 11:25:52;;;;;;;46.92;9.38;;;9.30;99.90;;;;;;5078778;28;20497;-75
2022/01/17 11:28:22;;;;;;;41.30;7.32;;;9.30;99.90;;;;;;5076996;28;20115;-75
2022/01/17 11:30:51;;;;;;;37.33;6.55;;;9.30;99.90;;;;;;5079952;28;20044;-75
2022/01/17 11:33:17;;;;;;;49.30;8.18;;;9.50;99.90;;;;;;5079788;28;20068;-75
2022/01/17 11:35:45;;;;;;;37.45;7.43;;;9.60;99.90;;;;;;5110094;27;20079;-76
2022/01/17 11:38:19;;;;;;;40.70;7.32;;;9.60;99.90;;;;;;5102206;27;20102;-76
2022/01/17 11:40:45;;;;;;;42.67;7.78;;;9.70;99.90;;;;;;5079387;28;20108;-76
2022/01/17 11:43:19;;;;;;;38.97;8.38;;;9.80;99.90;;;;;;5080338;28;20040;-75
2022/01/17 11:48:20;;;;;;;41.13;8.48;;;9.90;99.90;;;;;;4992382;28;20469;-76
2022/01/17 11:50:48;;;;;;;39.40;6.78;;;10.00;99.90;;;;;;5004415;28;20463;-76
2022/01/17 11:53:14;;;;;;;38.72;7.70;;;10.20;99.90;;;;;;4975673;28;20045;-76
2022/01/17 11:55:40;;;;;;;49.63;8.38;;;10.40;99.90;;;;;;5005484;28;20297;-76
2022/01/17 11:58:39;;;;;;;39.63;7.10;;;10.50;99.90;;;;;;4989958;28;20847;-76
2022/01/17 12:01:04;;;;;;;38.70;7.90;;;10.60;99.90;;;;;;4985680;28;20489;-76
2022/01/17 12:03:31;;;;;;;51.03;8.80;;;10.70;99.90;;;;;;4989490;28;20124;-76
2022/01/17 12:06:04;;;;;;;40.42;7.28;;;10.80;99.90;;;;;;4970730;28;20041;-76
2022/01/17 12:08:31;;;;;;;43.67;7.22;;;10.80;99.90;;;;;;4989053;28;20046;-76
2022/01/17 12:11:03;;;;;;;41.35;8.13;;;10.80;99.90;;;;;;5006694;28;20042;-76
2022/01/17 12:13:40;;;;;;;40.63;7.88;;;10.80;99.90;;;;;;5005442;28;20092;-76
2022/01/17 12:16:27;;;;;;;36.55;6.88;;;10.80;99.90;;;;;;5005338;28;20057;-76
2022/01/17 12:19:03;;;;;;;31.02;6.57;;;10.70;99.90;;;;;;4989594;28;21638;-75
2022/01/17 12:21:44;;;;;;;42.05;7.30;;;10.60;99.90;;;;;;4975259;28;20065;-76
2022/01/17 12:24:26;;;;;;;38.60;6.25;;;10.60;99.90;;;;;;4971172;28;20054;-75
2022/01/17 12:27:00;;;;;;;39.72;7.65;;;10.50;99.90;;;;;;4972989;28;20082;-76
2022/01/17 12:29:42;;;;;;;34.65;8.68;;;10.50;99.90;;;;;;4973773;28;20050;-76
2022/01/17 12:32:24;;;;;;;36.67;6.60;;;10.40;99.90;;;;;;5003171;28;20156;-76
2022/01/17 12:34:53;;;;;;;36.05;6.78;;;10.40;99.90;;;;;;5002160;28;20049;-76
2022/01/17 12:37:32;;;;;;;38.85;8.02;;;10.40;99.90;;;;;;4993496;28;20108;-76
2022/01/17 12:40:24;;;;;;;39.60;7.82;;;10.60;99.90;;;;;;5006284;28;20056;-76
2022/01/17 12:42:53;;;;;;;41.35;8.35;;;10.70;99.90;;;;;;5003215;28;20053;-76
2022/01/17 12:45:41;;;;;;;39.55;7.93;;;10.70;99.90;;;;;;4993348;28;20392;-76
2022/01/17 12:48:11;;;;;;;50.75;10.75;;;10.70;99.90;;;;;;4987665;28;20993;-76
2022/01/17 12:50:39;;;;;;;42.58;8.15;;;10.70;99.90;;;;;;5005841;28;20042;-76
2022/01/17 12:53:07;;;;;;;35.13;7.75;;;10.70;99.90;;;;;;5003808;28;20041;-76
2022/01/17 12:55:37;;;;;;;41.53;7.50;;;10.60;99.90;;;;;;4975442;28;20065;-76
2022/01/17 12:58:12;;;;;;;35.42;7.47;;;10.50;99.90;;;;;;5004050;28;20046;-76
2022/01/17 13:00:44;;;;;;;41.47;9.75;;;10.40;99.90;;;;;;4991118;28;20586;-76
2022/01/17 13:03:12;;;;;;;38.17;7.88;;;10.40;99.90;;;;;;4991963;28;20497;-76
2022/01/17 13:05:39;;;;;;;37.25;6.38;;;10.30;99.90;;;;;;4985365;28;20728;-76
2022/01/17 13:08:05;;;;;;;35.10;6.53;;;10.20;99.90;;;;;;4991936;28;20042;-77
2022/01/17 13:10:31;;;;;;;33.85;6.95;;;10.20;99.90;;;;;;4991306;28;20046;-76
2022/01/17 13:12:58;;;;;;;29.92;6.03;;;10.10;99.90;;;;;;4969534;28;20164;-76
2022/01/17 13:15:24;;;;;;;28.88;5.68;;;10.00;99.90;;;;;;4989997;28;20054;-76
2022/01/17 13:17:52;;;;;;;31.67;5.43;;;10.00;99.90;;;;;;4977629;28;20045;-76
2022/01/17 13:20:19;;;;;;;38.83;6.97;;;10.00;99.90;;;;;;5005770;28;20081;-76
2022/01/17 13:23:26;;;;;;;37.42;7.10;;;9.90;99.90;;;;;;5004267;28;20033;-76
2022/01/17 13:25:37;;;;;;;42.58;8.45;;;9.90;99.90;;;;;;4968700;28;20049;-76